< < Back
Terminal Aerodrome Forecast


Current Version              Previous Versions:   1  2  3  4  5  6  7  8  9  

Terminal Aerodrome Forecast

564
FTUS42 KGSP 201700
TAFGSP
TAF
KGSP 201739Z 2018/2118 20006KT P6SM FEW040 SCT250
     FM210100 22004KT P6SM SCT100 BKN250
     FM210700 24004KT P6SM SCT250
     FM211400 30007KT P6SM SCT030=

Latest METAR

429
SAUS70 KWBC 210300 RRC
MTRGSP
METAR KGSP 210253Z 00000KT 10SM FEW070 BKN095 BKN120 14/13 A2999 RMK AO2
RAB28E46 SLP150 P0000 60000 T01390128 53001


USA.gov is the U.S. government's official web portal to all federal, state and local government web resources and services.